sensor_id;sensor_type;location;lat;lon;timestamp;pressure;altitude;pressure_sealevel;temperature;humidity
68199;BME280;55021;51.554;17.044;2023-04-07T00:12:20;100901.16;;;4.26;85.47
68199;BME280;55021;51.554;17.044;2023-04-07T00:27:24;100855.56;;;4.28;86.31
68199;BME280;55021;51.554;17.044;2023-04-07T00:42:27;100869.28;;;3.97;87.68
68199;BME280;55021;51.554;17.044;2023-04-07T00:57:29;100858.38;;;4.00;87.06
68199;BME280;55021;51.554;17.044;2023-04-07T01:12:37;100827.81;;;3.36;90.19
68199;BME280;55021;51.554;17.044;2023-04-07T01:27:46;100839.78;;;3.30;90.81
68199;BME280;55021;51.554;17.044;2023-04-07T01:42:50;100826.28;;;3.19;92.94
68199;BME280;55021;51.554;17.044;2023-04-07T01:57:54;100820.69;;;3.22;91.67
68199;BME280;55021;51.554;17.044;2023-04-07T02:12:59;100725.47;;;2.81;91.30
68199;BME280;55021;51.554;17.044;2023-04-07T02:28:03;100801.75;;;3.13;93.68
68199;BME280;55021;51.554;17.044;2023-04-07T02:43:06;100796.34;;;3.00;93.83
68199;BME280;55021;51.554;17.044;2023-04-07T02:58:08;100790.81;;;2.89;94.54
68199;BME280;55021;51.554;17.044;2023-04-07T03:13:10;100787.78;;;3.22;92.48
68199;BME280;55021;51.554;17.044;2023-04-07T03:28:12;100769.16;;;2.80;93.93
68199;BME280;55021;51.554;17.044;2023-04-07T03:43:15;100768.78;;;3.12;93.92
68199;BME280;55021;51.554;17.044;2023-04-07T03:58:18;100724.94;;;3.42;88.82
68199;BME280;55021;51.554;17.044;2023-04-07T04:13:20;100771.78;;;3.61;90.28
68199;BME280;55021;51.554;17.044;2023-04-07T04:28:23;100773.66;;;3.47;91.60
68199;BME280;55021;51.554;17.044;2023-04-07T04:43:25;100754.22;;;2.90;93.14
68199;BME280;55021;51.554;17.044;2023-04-07T04:58:27;100768.56;;;3.03;93.03
68199;BME280;55021;51.554;17.044;2023-04-07T05:13:30;100746.72;;;3.23;92.85
68199;BME280;55021;51.554;17.044;2023-04-07T05:28:32;100782.13;;;3.53;91.83
68199;BME280;55021;51.554;17.044;2023-04-07T05:43:35;100760.69;;;3.80;92.91
68199;BME280;55021;51.554;17.044;2023-04-07T05:58:37;100682.13;;;3.81;90.29
68199;BME280;55021;51.554;17.044;2023-04-07T06:13:39;100771.97;;;3.98;91.92
68199;BME280;55021;51.554;17.044;2023-04-07T06:28:42;100717.78;;;3.94;91.62
68199;BME280;55021;51.554;17.044;2023-04-07T06:43:46;100755.28;;;3.55;96.84
68199;BME280;55021;51.554;17.044;2023-04-07T06:58:49;100764.81;;;3.98;94.70
68199;BME280;55021;51.554;17.044;2023-04-07T07:13:51;100767.84;;;3.40;97.83
68199;BME280;55021;51.554;17.044;2023-04-07T07:28:54;100756.88;;;3.97;94.25
68199;BME280;55021;51.554;17.044;2023-04-07T07:43:57;100774.66;;;4.73;91.03
68199;BME280;55021;51.554;17.044;2023-04-07T07:58:59;100792.13;;;4.54;92.20
68199;BME280;55021;51.554;17.044;2023-04-07T08:14:02;100790.53;;;4.26;95.82
68199;BME280;55021;51.554;17.044;2023-04-07T08:29:05;100778.59;;;3.79;96.78
68199;BME280;55021;51.554;17.044;2023-04-07T08:44:08;100771.56;;;4.04;98.84
68199;BME280;55021;51.554;17.044;2023-04-07T08:59:12;100768.69;;;4.44;94.57
68199;BME280;55021;51.554;17.044;2023-04-07T09:14:15;100777.03;;;4.40;96.24
68199;BME280;55021;51.554;17.044;2023-04-07T09:29:21;100728.63;;;4.18;96.12
68199;BME280;55021;51.554;17.044;2023-04-07T09:44:24;100751.41;;;4.48;97.11
68199;BME280;55021;51.554;17.044;2023-04-07T09:59:27;100720.34;;;4.95;93.19
68199;BME280;55021;51.554;17.044;2023-04-07T10:14:31;100779.44;;;4.81;96.13
68199;BME280;55021;51.554;17.044;2023-04-07T10:29:38;100743.59;;;5.07;94.65
68199;BME280;55021;51.554;17.044;2023-04-07T10:44:46;100756.09;;;6.01;90.90
68199;BME280;55021;51.554;17.044;2023-04-07T11:15:21;100748.88;;;6.25;89.40
68199;BME280;55021;51.554;17.044;2023-04-07T11:30:25;100735.13;;;6.06;95.20
68199;BME280;55021;51.554;17.044;2023-04-07T11:45:28;100727.78;;;5.97;95.19
68199;BME280;55021;51.554;17.044;2023-04-07T12:00:31;100733.56;;;5.80;94.70
68199;BME280;55021;51.554;17.044;2023-04-07T12:15:34;100747.41;;;5.87;96.64
68199;BME280;55021;51.554;17.044;2023-04-07T12:30:36;100725.53;;;6.26;93.39
68199;BME280;55021;51.554;17.044;2023-04-07T12:45:39;100729.88;;;6.05;95.24
68199;BME280;55021;51.554;17.044;2023-04-07T13:00:42;100722.28;;;5.99;94.02
68199;BME280;55021;51.554;17.044;2023-04-07T13:15:44;100723.03;;;6.01;94.08
68199;BME280;55021;51.554;17.044;2023-04-07T13:30:47;100713.09;;;5.79;95.30
68199;BME280;55021;51.554;17.044;2023-04-07T13:45:52;100695.91;;;5.93;95.79
68199;BME280;55021;51.554;17.044;2023-04-07T14:00:54;100717.69;;;6.12;95.54
68199;BME280;55021;51.554;17.044;2023-04-07T14:15:57;100699.47;;;6.04;96.29
68199;BME280;55021;51.554;17.044;2023-04-07T14:31:01;100712.97;;;6.71;94.47
68199;BME280;55021;51.554;17.044;2023-04-07T14:46:04;100696.38;;;6.55;95.60
68199;BME280;55021;51.554;17.044;2023-04-07T15:01:07;100702.63;;;6.09;95.99
68199;BME280;55021;51.554;17.044;2023-04-07T15:16:10;100728.59;;;6.33;97.01
68199;BME280;55021;51.554;17.044;2023-04-07T15:31:14;100703.25;;;6.13;98.73
68199;BME280;55021;51.554;17.044;2023-04-07T15:46:16;100718.13;;;5.95;100.00
68199;BME280;55021;51.554;17.044;2023-04-07T16:01:18;100711.66;;;5.97;100.00
68199;BME280;55021;51.554;17.044;2023-04-07T16:16:21;100709.78;;;6.21;100.00
68199;BME280;55021;51.554;17.044;2023-04-07T16:31:23;100655.91;;;5.55;100.00
68199;BME280;55021;51.554;17.044;2023-04-07T16:46:27;100690.44;;;6.05;99.98
68199;BME280;55021;51.554;17.044;2023-04-07T17:01:30;100667.44;;;5.90;100.00
68199;BME280;55021;51.554;17.044;2023-04-07T17:16:32;100712.88;;;5.58;100.00
68199;BME280;55021;51.554;17.044;2023-04-07T17:31:35;100726.22;;;6.06;100.00
68199;BME280;55021;51.554;17.044;2023-04-07T17:46:37;100740.22;;;6.44;99.10
68199;BME280;55021;51.554;17.044;2023-04-07T18:01:40;100755.53;;;6.09;100.00
68199;BME280;55021;51.554;17.044;2023-04-07T18:16:43;100767.94;;;6.56;99.53
68199;BME280;55021;51.554;17.044;2023-04-07T18:31:45;100774.88;;;6.01;100.00
68199;BME280;55021;51.554;17.044;2023-04-07T18:46:49;100776.84;;;6.34;100.00
68199;BME280;55021;51.554;17.044;2023-04-07T19:01:52;100778.69;;;6.10;100.00
68199;BME280;55021;51.554;17.044;2023-04-07T19:16:54;100767.47;;;6.62;99.58
68199;BME280;55021;51.554;17.044;2023-04-07T19:31:57;100780.97;;;6.27;100.00
68199;BME280;55021;51.554;17.044;2023-04-07T19:47:00;100761.22;;;6.04;100.00
68199;BME280;55021;51.554;17.044;2023-04-07T20:02:02;100760.69;;;5.88;100.00
68199;BME280;55021;51.554;17.044;2023-04-07T20:17:04;100772.72;;;6.52;100.00
68199;BME280;55021;51.554;17.044;2023-04-07T20:32:07;100782.03;;;6.13;100.00
68199;BME280;55021;51.554;17.044;2023-04-07T20:47:10;100739.22;;;6.34;100.00
68199;BME280;55021;51.554;17.044;2023-04-07T21:02:12;100756.38;;;6.66;100.00
68199;BME280;55021;51.554;17.044;2023-04-07T21:17:15;100767.22;;;7.52;98.35
68199;BME280;55021;51.554;17.044;2023-04-07T21:32:17;100685.59;;;7.52;94.57
68199;BME280;55021;51.554;17.044;2023-04-07T21:47:19;100726.25;;;7.48;97.76
68199;BME280;55021;51.554;17.044;2023-04-07T22:02:22;100743.53;;;8.40;95.46
68199;BME280;55021;51.554;17.044;2023-04-07T22:17:24;100774.63;;;8.64;94.13
68199;BME280;55021;51.554;17.044;2023-04-07T22:32:26;100770.66;;;8.06;98.21
68199;BME280;55021;51.554;17.044;2023-04-07T22:47:29;100800.16;;;8.19;97.37
68199;BME280;55021;51.554;17.044;2023-04-07T23:02:34;100754.97;;;7.05;100.00
68199;BME280;55021;51.554;17.044;2023-04-07T23:17:36;100824.19;;;7.79;97.43
68199;BME280;55021;51.554;17.044;2023-04-07T23:32:39;100848.53;;;7.89;96.42
68199;BME280;55021;51.554;17.044;2023-04-07T23:47:41;100864.56;;;8.43;93.77
